sensor_id;sensor_type;location;lat;lon;timestamp;pressure;altitude;pressure_sealevel;temperature;humidity
16094;BME280;8151;47.824;12.092;2023-10-31T00:00:50;94836.16;;;12.42;83.17
16094;BME280;8151;47.824;12.092;2023-10-31T00:03:23;94828.09;;;12.30;83.21
16094;BME280;8151;47.824;12.092;2023-10-31T00:05:52;94838.59;;;12.18;83.35
16094;BME280;8151;47.824;12.092;2023-10-31T00:08:21;94841.72;;;12.09;83.66
16094;BME280;8151;47.824;12.092;2023-10-31T00:10:51;94847.03;;;12.09;83.60
16094;BME280;8151;47.824;12.092;2023-10-31T00:13:19;94866.38;;;12.09;83.49
16094;BME280;8151;47.824;12.092;2023-10-31T00:15:49;94857.88;;;12.00;83.46
16094;BME280;8151;47.824;12.092;2023-10-31T00:18:17;94871.63;;;11.91;83.54
16094;BME280;8151;47.824;12.092;2023-10-31T00:20:46;94874.25;;;11.84;83.40
16094;BME280;8151;47.824;12.092;2023-10-31T00:23:15;94877.56;;;11.79;83.75
16094;BME280;8151;47.824;12.092;2023-10-31T00:25:43;94879.00;;;11.75;83.52
16094;BME280;8151;47.824;12.092;2023-10-31T00:28:12;94881.25;;;11.72;83.77
16094;BME280;8151;47.824;12.092;2023-10-31T00:30:40;94882.28;;;11.71;83.67
16094;BME280;8151;47.824;12.092;2023-10-31T00:33:10;94883.09;;;11.71;83.77
16094;BME280;8151;47.824;12.092;2023-10-31T00:35:38;94881.47;;;11.70;83.64
16094;BME280;8151;47.824;12.092;2023-10-31T00:38:07;94889.63;;;11.69;84.06
16094;BME280;8151;47.824;12.092;2023-10-31T00:40:36;94888.00;;;11.68;83.78
16094;BME280;8151;47.824;12.092;2023-10-31T00:43:04;94881.84;;;11.74;83.95
16094;BME280;8151;47.824;12.092;2023-10-31T00:45:32;94888.97;;;11.80;83.79
16094;BME280;8151;47.824;12.092;2023-10-31T00:48:01;94887.50;;;11.84;83.69
16094;BME280;8151;47.824;12.092;2023-10-31T00:50:31;94887.72;;;11.89;83.70
16094;BME280;8151;47.824;12.092;2023-10-31T00:52:59;94889.75;;;11.87;83.67
16094;BME280;8151;47.824;12.092;2023-10-31T00:55:28;94891.19;;;11.83;83.93
16094;BME280;8151;47.824;12.092;2023-10-31T00:57:56;94885.69;;;11.85;84.00
16094;BME280;8151;47.824;12.092;2023-10-31T01:00:25;94885.06;;;11.89;83.89
16094;BME280;8151;47.824;12.092;2023-10-31T01:02:53;94880.56;;;11.90;83.83
16094;BME280;8151;47.824;12.092;2023-10-31T01:05:22;94880.56;;;11.90;83.93
16094;BME280;8151;47.824;12.092;2023-10-31T01:08:02;94888.31;;;11.91;83.83
16094;BME280;8151;47.824;12.092;2023-10-31T01:10:30;94889.75;;;11.87;83.99
16094;BME280;8151;47.824;12.092;2023-10-31T01:12:59;94882.81;;;11.86;83.97
16094;BME280;8151;47.824;12.092;2023-10-31T01:15:27;94881.41;;;11.83;83.97
16094;BME280;8151;47.824;12.092;2023-10-31T01:17:55;94875.09;;;11.78;84.09
16094;BME280;8151;47.824;12.092;2023-10-31T01:20:24;94872.84;;;11.81;83.94
16094;BME280;8151;47.824;12.092;2023-10-31T01:22:52;94860.41;;;11.82;83.61
16094;BME280;8151;47.824;12.092;2023-10-31T01:25:22;94858.41;;;11.77;83.90
16094;BME280;8151;47.824;12.092;2023-10-31T01:27:51;94851.50;;;11.70;83.84
16094;BME280;8151;47.824;12.092;2023-10-31T01:30:19;94873.97;;;11.67;83.48
16094;BME280;8151;47.824;12.092;2023-10-31T01:32:57;94872.91;;;11.68;83.43
16094;BME280;8151;47.824;12.092;2023-10-31T01:35:26;94873.97;;;11.67;83.38
16094;BME280;8151;47.824;12.092;2023-10-31T01:38:04;94881.91;;;11.67;83.46
16094;BME280;8151;47.824;12.092;2023-10-31T01:40:34;94884.31;;;11.69;83.31
16094;BME280;8151;47.824;12.092;2023-10-31T01:43:03;94887.56;;;11.71;83.41
16094;BME280;8151;47.824;12.092;2023-10-31T01:45:31;94895.31;;;11.72;83.16
16094;BME280;8151;47.824;12.092;2023-10-31T01:47:59;94895.09;;;11.74;82.74
16094;BME280;8151;47.824;12.092;2023-10-31T01:50:28;94894.91;;;11.75;82.74
16094;BME280;8151;47.824;12.092;2023-10-31T01:52:57;94899.56;;;11.80;83.03
16094;BME280;8151;47.824;12.092;2023-10-31T01:55:25;94899.34;;;11.81;82.81
16094;BME280;8151;47.824;12.092;2023-10-31T01:57:56;94896.28;;;11.85;83.03
16094;BME280;8151;47.824;12.092;2023-10-31T02:00:24;94895.84;;;11.88;83.08
16094;BME280;8151;47.824;12.092;2023-10-31T02:02:53;94902.75;;;11.95;82.84
16094;BME280;8151;47.824;12.092;2023-10-31T02:05:23;94902.94;;;12.00;82.68
16094;BME280;8151;47.824;12.092;2023-10-31T02:07:51;94906.81;;;12.05;82.49
16094;BME280;8151;47.824;12.092;2023-10-31T02:10:19;94905.75;;;12.06;82.57
16094;BME280;8151;47.824;12.092;2023-10-31T02:12:48;94908.41;;;12.06;82.30
16094;BME280;8151;47.824;12.092;2023-10-31T02:15:18;94905.00;;;11.98;82.48
16094;BME280;8151;47.824;12.092;2023-10-31T02:17:46;94899.50;;;12.00;82.61
16094;BME280;8151;47.824;12.092;2023-10-31T02:20:15;94900.91;;;12.02;82.42
16094;BME280;8151;47.824;12.092;2023-10-31T02:22:45;94908.06;;;12.02;82.51
16094;BME280;8151;47.824;12.092;2023-10-31T02:25:16;94908.47;;;11.99;82.56
16094;BME280;8151;47.824;12.092;2023-10-31T02:27:45;94908.28;;;11.94;82.59
16094;BME280;8151;47.824;12.092;2023-10-31T02:30:14;94907.69;;;11.85;82.52
16094;BME280;8151;47.824;12.092;2023-10-31T02:32:46;94922.19;;;11.82;82.67
16094;BME280;8151;47.824;12.092;2023-10-31T02:35:15;94921.34;;;11.82;82.66
16094;BME280;8151;47.824;12.092;2023-10-31T02:37:46;94931.75;;;11.83;82.66
16094;BME280;8151;47.824;12.092;2023-10-31T02:40:15;94929.09;;;11.83;82.66
16094;BME280;8151;47.824;12.092;2023-10-31T02:42:43;94937.25;;;11.82;82.83
16094;BME280;8151;47.824;12.092;2023-10-31T02:45:12;94935.63;;;11.81;82.83
16094;BME280;8151;47.824;12.092;2023-10-31T02:47:40;94942.16;;;11.78;82.82
16094;BME280;8151;47.824;12.092;2023-10-31T02:50:09;94941.34;;;11.78;82.76
16094;BME280;8151;47.824;12.092;2023-10-31T02:52:37;94935.03;;;11.79;82.95
16094;BME280;8151;47.824;12.092;2023-10-31T02:55:08;94934.81;;;11.80;82.88
16094;BME280;8151;47.824;12.092;2023-10-31T02:57:37;94931.16;;;11.81;82.74
16094;BME280;8151;47.824;12.092;2023-10-31T03:00:11;94929.91;;;11.84;83.02
16094;BME280;8151;47.824;12.092;2023-10-31T03:02:40;94940.50;;;11.84;83.23
16094;BME280;8151;47.824;12.092;2023-10-31T03:05:08;94945.81;;;11.84;83.26
16094;BME280;8151;47.824;12.092;2023-10-31T03:07:45;94951.53;;;11.81;83.29
16094;BME280;8151;47.824;12.092;2023-10-31T03:10:17;94956.25;;;11.79;83.41
16094;BME280;8151;47.824;12.092;2023-10-31T03:12:45;94955.03;;;11.75;83.50
16094;BME280;8151;47.824;12.092;2023-10-31T03:15:15;94956.03;;;11.74;83.60
16094;BME280;8151;47.824;12.092;2023-10-31T03:17:43;94961.16;;;11.69;83.76
16094;BME280;8151;47.824;12.092;2023-10-31T03:20:12;94964.22;;;11.66;83.87
16094;BME280;8151;47.824;12.092;2023-10-31T03:22:40;94958.75;;;11.60;83.87
16094;BME280;8151;47.824;12.092;2023-10-31T03:25:09;94962.44;;;11.59;84.05
16094;BME280;8151;47.824;12.092;2023-10-31T03:27:39;94952.44;;;11.55;84.08
16094;BME280;8151;47.824;12.092;2023-10-31T03:30:08;94967.53;;;11.54;84.58
16094;BME280;8151;47.824;12.092;2023-10-31T03:32:36;94976.06;;;11.56;84.44
16094;BME280;8151;47.824;12.092;2023-10-31T03:35:06;94981.38;;;11.56;84.29
16094;BME280;8151;47.824;12.092;2023-10-31T03:37:35;94981.97;;;11.58;84.36
16094;BME280;8151;47.824;12.092;2023-10-31T03:40:09;94985.44;;;11.59;84.23
16094;BME280;8151;47.824;12.092;2023-10-31T03:42:48;94986.88;;;11.61;84.21
16094;BME280;8151;47.824;12.092;2023-10-31T03:45:17;94999.69;;;11.65;83.71
16094;BME280;8151;47.824;12.092;2023-10-31T03:47:45;94995.41;;;11.63;83.80
16094;BME280;8151;47.824;12.092;2023-10-31T03:50:14;94996.63;;;11.61;83.94
16094;BME280;8151;47.824;12.092;2023-10-31T03:52:43;95009.06;;;11.60;84.01
16094;BME280;8151;47.824;12.092;2023-10-31T03:55:11;95013.34;;;11.55;83.92
16094;BME280;8151;47.824;12.092;2023-10-31T03:57:40;95016.84;;;11.49;84.35
16094;BME280;8151;47.824;12.092;2023-10-31T04:00:11;95024.59;;;11.50;84.27
16094;BME280;8151;47.824;12.092;2023-10-31T04:02:43;95025.41;;;11.51;84.33
16094;BME280;8151;47.824;12.092;2023-10-31T04:05:11;95024.16;;;11.53;84.38
16094;BME280;8151;47.824;12.092;2023-10-31T04:07:40;95026.19;;;11.58;83.88
16094;BME280;8151;47.824;12.092;2023-10-31T04:10:08;95032.72;;;11.62;84.35
16094;BME280;8151;47.824;12.092;2023-10-31T04:12:37;95029.44;;;11.67;84.37
16094;BME280;8151;47.824;12.092;2023-10-31T04:15:06;95022.09;;;11.69;84.36
16094;BME280;8151;47.824;12.092;2023-10-31T04:17:37;95014.97;;;11.69;84.51
16094;BME280;8151;47.824;12.092;2023-10-31T04:20:07;95010.69;;;11.75;84.58
16094;BME280;8151;47.824;12.092;2023-10-31T04:22:35;95018.38;;;11.83;84.69
16094;BME280;8151;47.824;12.092;2023-10-31T04:25:05;95007.78;;;11.90;84.58
16094;BME280;8151;47.824;12.092;2023-10-31T04:27:33;95015.13;;;11.94;84.71
16094;BME280;8151;47.824;12.092;2023-10-31T04:30:02;95023.28;;;11.93;84.80
16094;BME280;8151;47.824;12.092;2023-10-31T04:32:30;95022.03;;;11.95;85.12
16094;BME280;8151;47.824;12.092;2023-10-31T04:35:00;95023.69;;;11.96;85.11
16094;BME280;8151;47.824;12.092;2023-10-31T04:37:33;95022.22;;;12.00;85.00
16094;BME280;8151;47.824;12.092;2023-10-31T04:40:01;95028.34;;;12.01;85.09
16094;BME280;8151;47.824;12.092;2023-10-31T04:42:31;95034.28;;;11.96;85.20
16094;BME280;8151;47.824;12.092;2023-10-31T04:45:00;95030.44;;;11.92;85.39
16094;BME280;8151;47.824;12.092;2023-10-31T04:47:40;95026.50;;;11.88;85.18
16094;BME280;8151;47.824;12.092;2023-10-31T04:50:10;95016.75;;;11.82;85.15
16094;BME280;8151;47.824;12.092;2023-10-31T04:52:39;95011.47;;;11.75;85.08
16094;BME280;8151;47.824;12.092;2023-10-31T04:55:08;95004.56;;;11.68;85.32
16094;BME280;8151;47.824;12.092;2023-10-31T04:57:36;95018.66;;;11.61;85.32
16094;BME280;8151;47.824;12.092;2023-10-31T05:00:06;95042.28;;;11.56;85.13
16094;BME280;8151;47.824;12.092;2023-10-31T05:02:35;95065.53;;;11.54;85.07
16094;BME280;8151;47.824;12.092;2023-10-31T05:05:04;95080.22;;;11.50;85.24
16094;BME280;8151;47.824;12.092;2023-10-31T05:07:35;95076.34;;;11.46;85.06
16094;BME280;8151;47.824;12.092;2023-10-31T05:10:03;95083.88;;;11.42;85.17
16094;BME280;8151;47.824;12.092;2023-10-31T05:12:32;95061.47;;;11.38;84.79
16094;BME280;8151;47.824;12.092;2023-10-31T05:15:01;95053.13;;;11.35;84.93
16094;BME280;8151;47.824;12.092;2023-10-31T05:17:29;95057.63;;;11.34;85.12
16094;BME280;8151;47.824;12.092;2023-10-31T05:19:58;95062.06;;;11.34;84.82
16094;BME280;8151;47.824;12.092;2023-10-31T05:22:26;95066.97;;;11.37;84.77
16094;BME280;8151;47.824;12.092;2023-10-31T05:24:58;95073.69;;;11.39;84.81
16094;BME280;8151;47.824;12.092;2023-10-31T05:27:27;95065.75;;;11.39;84.68
16094;BME280;8151;47.824;12.092;2023-10-31T05:29:59;95060.63;;;11.38;84.58
16094;BME280;8151;47.824;12.092;2023-10-31T05:32:27;95078.16;;;11.39;84.47
16094;BME280;8151;47.824;12.092;2023-10-31T05:34:56;95079.59;;;11.35;84.58
16094;BME280;8151;47.824;12.092;2023-10-31T05:37:26;95088.34;;;11.35;84.41
16094;BME280;8151;47.824;12.092;2023-10-31T05:39:55;95096.09;;;11.37;84.22
16094;BME280;8151;47.824;12.092;2023-10-31T05:42:25;95089.16;;;11.36;84.46
16094;BME280;8151;47.824;12.092;2023-10-31T05:44:54;95095.50;;;11.35;83.95
16094;BME280;8151;47.824;12.092;2023-10-31T05:47:24;95085.91;;;11.34;84.47
16094;BME280;8151;47.824;12.092;2023-10-31T05:49:52;95086.75;;;11.34;84.36
16094;BME280;8151;47.824;12.092;2023-10-31T05:52:20;95090.41;;;11.33;84.24
16094;BME280;8151;47.824;12.092;2023-10-31T05:54:49;95089.78;;;11.38;84.20
16094;BME280;8151;47.824;12.092;2023-10-31T05:57:17;95095.91;;;11.38;83.79
16094;BME280;8151;47.824;12.092;2023-10-31T05:59:47;95088.16;;;11.37;83.95
16094;BME280;8151;47.824;12.092;2023-10-31T06:02:16;95093.44;;;11.37;83.94
16094;BME280;8151;47.824;12.092;2023-10-31T06:04:44;95108.94;;;11.40;84.22
16094;BME280;8151;47.824;12.092;2023-10-31T06:07:13;95105.47;;;11.39;83.95
16094;BME280;8151;47.824;12.092;2023-10-31T06:09:41;95098.13;;;11.41;84.17
16094;BME280;8151;47.824;12.092;2023-10-31T06:12:10;95110.16;;;11.44;83.84
16094;BME280;8151;47.824;12.092;2023-10-31T06:14:38;95113.81;;;11.43;84.31
16094;BME280;8151;47.824;12.092;2023-10-31T06:17:08;95109.31;;;11.43;84.09
16094;BME280;8151;47.824;12.092;2023-10-31T06:19:36;95102.22;;;11.44;84.02
16094;BME280;8151;47.824;12.092;2023-10-31T06:22:05;95103.03;;;11.45;83.89
16094;BME280;8151;47.824;12.092;2023-10-31T06:24:33;95099.78;;;11.42;84.05
16094;BME280;8151;47.824;12.092;2023-10-31T06:27:02;95105.47;;;11.39;83.94
16094;BME280;8151;47.824;12.092;2023-10-31T06:29:30;95113.22;;;11.41;84.25
16094;BME280;8151;47.824;12.092;2023-10-31T06:32:20;95133.16;;;11.43;84.02
16094;BME280;8151;47.824;12.092;2023-10-31T06:34:49;95156.59;;;11.47;83.70
16094;BME280;8151;47.824;12.092;2023-10-31T06:37:17;95161.50;;;11.50;83.64
16094;BME280;8151;47.824;12.092;2023-10-31T06:39:45;95153.94;;;11.53;83.90
16094;BME280;8151;47.824;12.092;2023-10-31T06:42:14;95155.59;;;11.54;83.85
16094;BME280;8151;47.824;12.092;2023-10-31T06:44:42;95162.50;;;11.55;83.66
16094;BME280;8151;47.824;12.092;2023-10-31T06:47:11;95165.16;;;11.55;83.71
16094;BME280;8151;47.824;12.092;2023-10-31T06:49:40;95155.59;;;11.54;83.71
16094;BME280;8151;47.824;12.092;2023-10-31T06:52:09;95144.59;;;11.51;83.50
16094;BME280;8151;47.824;12.092;2023-10-31T06:54:37;95136.84;;;11.42;83.67
16094;BME280;8151;47.824;12.092;2023-10-31T06:57:06;95147.63;;;11.41;83.73
16094;BME280;8151;47.824;12.092;2023-10-31T06:59:34;95156.81;;;11.38;83.90
16094;BME280;8151;47.824;12.092;2023-10-31T07:02:03;95157.63;;;11.39;83.80
16094;BME280;8151;47.824;12.092;2023-10-31T07:04:31;95166.78;;;11.36;83.60
16094;BME280;8151;47.824;12.092;2023-10-31T07:07:02;95170.44;;;11.35;83.79
16094;BME280;8151;47.824;12.092;2023-10-31T07:09:30;95170.63;;;11.34;83.62
16094;BME280;8151;47.824;12.092;2023-10-31T07:11:58;95168.59;;;11.36;83.96
16094;BME280;8151;47.824;12.092;2023-10-31T07:14:27;95175.75;;;11.35;83.50
16094;BME280;8151;47.824;12.092;2023-10-31T07:16:56;95175.75;;;11.35;83.47
16094;BME280;8151;47.824;12.092;2023-10-31T07:19:24;95187.13;;;11.36;83.72
16094;BME280;8151;47.824;12.092;2023-10-31T07:21:54;95184.50;;;11.36;83.47
16094;BME280;8151;47.824;12.092;2023-10-31T07:24:24;95176.53;;;11.36;83.58
16094;BME280;8151;47.824;12.092;2023-10-31T07:26:53;95179.81;;;11.31;83.59
16094;BME280;8151;47.824;12.092;2023-10-31T07:29:22;95191.81;;;11.27;83.61
16094;BME280;8151;47.824;12.092;2023-10-31T07:31:50;95202.03;;;11.30;84.15
16094;BME280;8151;47.824;12.092;2023-10-31T07:34:19;95214.66;;;11.35;84.07
16094;BME280;8151;47.824;12.092;2023-10-31T07:36:48;95213.63;;;11.36;83.59
16094;BME280;8151;47.824;12.092;2023-10-31T07:39:16;95220.75;;;11.35;83.26
16094;BME280;8151;47.824;12.092;2023-10-31T07:41:46;95210.34;;;11.34;83.63
16094;BME280;8151;47.824;12.092;2023-10-31T07:44:14;95205.91;;;11.34;84.00
16094;BME280;8151;47.824;12.092;2023-10-31T07:46:43;95211.19;;;11.34;84.05
16094;BME280;8151;47.824;12.092;2023-10-31T07:49:11;95201.00;;;11.38;83.85
16094;BME280;8151;47.824;12.092;2023-10-31T07:51:40;95202.03;;;11.43;83.83
16094;BME280;8151;47.824;12.092;2023-10-31T07:54:09;95198.78;;;11.48;83.81
16094;BME280;8151;47.824;12.092;2023-10-31T07:56:37;95199.97;;;11.46;83.88
16094;BME280;8151;47.824;12.092;2023-10-31T07:59:08;95217.09;;;11.43;83.91
16094;BME280;8151;47.824;12.092;2023-10-31T08:01:38;95230.16;;;11.45;84.30
16094;BME280;8151;47.824;12.092;2023-10-31T08:04:07;95242.16;;;11.47;83.98
16094;BME280;8151;47.824;12.092;2023-10-31T08:06:35;95236.25;;;11.45;83.95
16094;BME280;8151;47.824;12.092;2023-10-31T08:09:04;95237.28;;;11.44;83.75
16094;BME280;8151;47.824;12.092;2023-10-31T08:11:35;95247.28;;;11.42;84.13
16094;BME280;8151;47.824;12.092;2023-10-31T08:14:04;95264.59;;;11.45;84.00
16094;BME280;8151;47.824;12.092;2023-10-31T08:16:34;95254.78;;;11.38;84.01
16094;BME280;8151;47.824;12.092;2023-10-31T08:19:02;95251.31;;;11.31;83.92
16094;BME280;8151;47.824;12.092;2023-10-31T08:21:31;95253.13;;;11.24;84.17
16094;BME280;8151;47.824;12.092;2023-10-31T08:24:02;95250.25;;;11.19;84.21
16094;BME280;8151;47.824;12.092;2023-10-31T08:26:31;95249.84;;;11.15;84.18
16094;BME280;8151;47.824;12.092;2023-10-31T08:29:01;95259.81;;;11.13;84.57
16094;BME280;8151;47.824;12.092;2023-10-31T08:31:30;95262.84;;;11.10;84.40
16094;BME280;8151;47.824;12.092;2023-10-31T08:34:00;95264.88;;;11.08;84.64
16094;BME280;8151;47.824;12.092;2023-10-31T08:36:29;95276.09;;;11.10;84.72
16094;BME280;8151;47.824;12.092;2023-10-31T08:38:58;95277.53;;;11.13;84.83
16094;BME280;8151;47.824;12.092;2023-10-31T08:41:26;95285.25;;;11.08;84.18
16094;BME280;8151;47.824;12.092;2023-10-31T08:43:55;95284.84;;;11.11;84.59
16094;BME280;8151;47.824;12.092;2023-10-31T08:46:25;95282.84;;;11.13;84.38
16094;BME280;8151;47.824;12.092;2023-10-31T08:48:53;95282.63;;;11.14;84.11
16094;BME280;8151;47.824;12.092;2023-10-31T08:51:28;95276.50;;;11.14;83.99
16094;BME280;8151;47.824;12.092;2023-10-31T08:53:56;95287.91;;;11.14;83.64
16094;BME280;8151;47.824;12.092;2023-10-31T08:56:25;95288.75;;;11.15;83.82
16094;BME280;8151;47.824;12.092;2023-10-31T08:58:54;95287.72;;;11.16;84.03
16094;BME280;8151;47.824;12.092;2023-10-31T09:01:23;95288.13;;;11.19;83.55
16094;BME280;8151;47.824;12.092;2023-10-31T09:03:52;95285.91;;;11.23;83.38
16094;BME280;8151;47.824;12.092;2023-10-31T09:06:20;95291.63;;;11.27;83.34
16094;BME280;8151;47.824;12.092;2023-10-31T09:08:50;95303.84;;;11.28;83.16
16094;BME280;8151;47.824;12.092;2023-10-31T09:11:19;95295.28;;;11.26;82.78
16094;BME280;8151;47.824;12.092;2023-10-31T09:13:47;95292.81;;;11.24;83.17
16094;BME280;8151;47.824;12.092;2023-10-31T09:16:16;95301.81;;;11.30;83.09
16094;BME280;8151;47.824;12.092;2023-10-31T09:18:44;95299.16;;;11.30;82.98
16094;BME280;8151;47.824;12.092;2023-10-31T09:21:14;95291.03;;;11.31;82.56
16094;BME280;8151;47.824;12.092;2023-10-31T09:23:43;95291.84;;;11.32;83.12
16094;BME280;8151;47.824;12.092;2023-10-31T09:26:12;95288.38;;;11.31;82.91
16094;BME280;8151;47.824;12.092;2023-10-31T09:28:41;95293.25;;;11.28;82.76
16094;BME280;8151;47.824;12.092;2023-10-31T09:31:17;95301.63;;;11.31;82.60
16094;BME280;8151;47.824;12.092;2023-10-31T09:33:46;95317.13;;;11.34;82.38
16094;BME280;8151;47.824;12.092;2023-10-31T09:36:15;95328.75;;;11.40;82.21
16094;BME280;8151;47.824;12.092;2023-10-31T09:38:43;95331.00;;;11.43;82.32
16094;BME280;8151;47.824;12.092;2023-10-31T09:41:13;95331.41;;;11.47;82.21
16094;BME280;8151;47.824;12.092;2023-10-31T09:43:42;95333.66;;;11.50;81.92
16094;BME280;8151;47.824;12.092;2023-10-31T09:46:11;95334.06;;;11.53;81.99
16094;BME280;8151;47.824;12.092;2023-10-31T09:48:40;95348.97;;;11.54;82.19
16094;BME280;8151;47.824;12.092;2023-10-31T09:51:12;95360.38;;;11.55;81.94
16094;BME280;8151;47.824;12.092;2023-10-31T09:53:42;95370.97;;;11.55;81.69
16094;BME280;8151;47.824;12.092;2023-10-31T09:56:14;95372.81;;;11.54;81.79
16094;BME280;8151;47.824;12.092;2023-10-31T09:58:43;95380.75;;;11.54;81.59
16094;BME280;8151;47.824;12.092;2023-10-31T10:01:12;95383.41;;;11.54;81.23
16094;BME280;8151;47.824;12.092;2023-10-31T10:03:42;95377.91;;;11.56;81.21
16094;BME280;8151;47.824;12.092;2023-10-31T10:06:11;95372.19;;;11.52;81.38
16094;BME280;8151;47.824;12.092;2023-10-31T10:08:39;95375.63;;;11.53;81.20
16094;BME280;8151;47.824;12.092;2023-10-31T10:11:08;95375.25;;;11.56;81.57
16094;BME280;8151;47.824;12.092;2023-10-31T10:13:38;95373.22;;;11.58;81.51
16094;BME280;8151;47.824;12.092;2023-10-31T10:16:08;95372.63;;;11.62;81.81
16094;BME280;8151;47.824;12.092;2023-10-31T10:18:37;95369.78;;;11.64;81.88
16094;BME280;8151;47.824;12.092;2023-10-31T10:21:08;95370.81;;;11.70;81.54
16094;BME280;8151;47.824;12.092;2023-10-31T10:23:36;95374.06;;;11.72;81.84
16094;BME280;8151;47.824;12.092;2023-10-31T10:26:06;95376.72;;;11.72;81.90
16094;BME280;8151;47.824;12.092;2023-10-31T10:28:35;95371.81;;;11.69;82.00
16094;BME280;8151;47.824;12.092;2023-10-31T10:31:06;95375.06;;;11.71;81.98
16094;BME280;8151;47.824;12.092;2023-10-31T10:33:34;95374.50;;;11.75;81.89
16094;BME280;8151;47.824;12.092;2023-10-31T10:36:03;95380.41;;;11.77;82.08
16094;BME280;8151;47.824;12.092;2023-10-31T10:38:34;95383.88;;;11.78;82.31
16094;BME280;8151;47.824;12.092;2023-10-31T10:41:06;95390.59;;;11.80;82.20
16094;BME280;8151;47.824;12.092;2023-10-31T10:43:37;95385.72;;;11.84;81.87
16094;BME280;8151;47.824;12.092;2023-10-31T10:46:10;95384.72;;;11.85;81.98
16094;BME280;8151;47.824;12.092;2023-10-31T10:48:43;95392.06;;;11.83;81.97
16094;BME280;8151;47.824;12.092;2023-10-31T10:51:19;95397.16;;;11.85;81.87
16094;BME280;8151;47.824;12.092;2023-10-31T10:53:52;95397.16;;;11.85;81.82
16094;BME280;8151;47.824;12.092;2023-10-31T10:56:26;95391.63;;;11.86;81.83
16094;BME280;8151;47.824;12.092;2023-10-31T10:59:01;95399.22;;;11.89;81.50
16094;BME280;8151;47.824;12.092;2023-10-31T11:01:34;95392.09;;;11.90;81.51
16094;BME280;8151;47.824;12.092;2023-10-31T11:04:05;95378.84;;;11.90;81.36
16094;BME280;8151;47.824;12.092;2023-10-31T11:06:34;95381.28;;;11.91;81.48
16094;BME280;8151;47.824;12.092;2023-10-31T11:09:05;95372.34;;;11.92;81.29
16094;BME280;8151;47.824;12.092;2023-10-31T11:11:34;95374.16;;;11.92;81.28
16094;BME280;8151;47.824;12.092;2023-10-31T11:14:03;95371.88;;;11.89;81.01
16094;BME280;8151;47.824;12.092;2023-10-31T11:16:44;95368.81;;;11.85;81.37
16094;BME280;8151;47.824;12.092;2023-10-31T11:19:13;95369.19;;;11.82;81.30
16094;BME280;8151;47.824;12.092;2023-10-31T11:21:53;95359.63;;;11.81;81.43
16094;BME280;8151;47.824;12.092;2023-10-31T11:24:22;95363.09;;;11.81;81.33
16094;BME280;8151;47.824;12.092;2023-10-31T11:26:52;95366.16;;;11.85;81.15
16094;BME280;8151;47.824;12.092;2023-10-31T11:29:20;95367.16;;;11.84;81.04
16094;BME280;8151;47.824;12.092;2023-10-31T11:31:50;95369.00;;;11.83;81.03
16094;BME280;8151;47.824;12.092;2023-10-31T11:34:19;95366.56;;;11.82;80.94
16094;BME280;8151;47.824;12.092;2023-10-31T11:36:48;95363.28;;;11.80;81.39
16094;BME280;8151;47.824;12.092;2023-10-31T11:39:19;95369.19;;;11.82;81.26
16094;BME280;8151;47.824;12.092;2023-10-31T11:41:55;95371.66;;;11.83;81.11
16094;BME280;8151;47.824;12.092;2023-10-31T11:44:26;95364.31;;;11.86;80.87
16094;BME280;8151;47.824;12.092;2023-10-31T11:46:58;95362.13;;;11.89;80.89
16094;BME280;8151;47.824;12.092;2023-10-31T11:49:46;95353.97;;;11.91;80.96
16094;BME280;8151;47.824;12.092;2023-10-31T11:52:15;95356.00;;;11.95;80.83
16094;BME280;8151;47.824;12.092;2023-10-31T11:54:44;95355.63;;;11.98;80.71
16094;BME280;8151;47.824;12.092;2023-10-31T11:57:26;95348.28;;;12.00;80.56
16094;BME280;8151;47.824;12.092;2023-10-31T11:59:54;95348.69;;;12.04;80.61
16094;BME280;8151;47.824;12.092;2023-10-31T12:02:24;95342.34;;;12.05;80.37
16094;BME280;8151;47.824;12.092;2023-10-31T12:05:06;95347.84;;;12.04;80.31
16094;BME280;8151;47.824;12.092;2023-10-31T12:07:42;95343.16;;;12.06;80.33
16094;BME280;8151;47.824;12.092;2023-10-31T12:10:10;95346.03;;;12.11;80.20
16094;BME280;8151;47.824;12.092;2023-10-31T12:12:49;95339.72;;;12.12;80.19
16094;BME280;8151;47.824;12.092;2023-10-31T12:15:17;95334.19;;;12.13;80.17
16094;BME280;8151;47.824;12.092;2023-10-31T12:17:47;95326.25;;;12.13;80.10
16094;BME280;8151;47.824;12.092;2023-10-31T12:20:16;95335.84;;;12.14;80.19
16094;BME280;8151;47.824;12.092;2023-10-31T12:22:45;95325.06;;;12.16;80.21
16094;BME280;8151;47.824;12.092;2023-10-31T12:25:13;95333.63;;;12.18;80.25
16094;BME280;8151;47.824;12.092;2023-10-31T12:27:42;95338.91;;;12.18;80.25
16094;BME280;8151;47.824;12.092;2023-10-31T12:30:13;95329.94;;;12.19;80.08
16094;BME280;8151;47.824;12.092;2023-10-31T12:32:42;95332.19;;;12.22;80.11
16094;BME280;8151;47.824;12.092;2023-10-31T12:35:14;95332.41;;;12.27;80.15
16094;BME280;8151;47.824;12.092;2023-10-31T12:37:45;95340.97;;;12.29;79.99
16094;BME280;8151;47.824;12.092;2023-10-31T12:40:16;95341.97;;;12.28;80.12
16094;BME280;8151;47.824;12.092;2023-10-31T12:42:46;95346.47;;;12.28;80.29
16094;BME280;8151;47.824;12.092;2023-10-31T12:45:15;95346.66;;;12.26;80.01
16094;BME280;8151;47.824;12.092;2023-10-31T12:48:00;95337.06;;;12.25;79.85
16094;BME280;8151;47.824;12.092;2023-10-31T12:50:30;95345.44;;;12.29;79.73
16094;BME280;8151;47.824;12.092;2023-10-31T12:53:04;95339.31;;;12.28;79.84
16094;BME280;8151;47.824;12.092;2023-10-31T12:55:38;95350.31;;;12.25;79.73
16094;BME280;8151;47.824;12.092;2023-10-31T12:58:07;95354.41;;;12.21;79.44
16094;BME280;8151;47.824;12.092;2023-10-31T13:00:37;95360.53;;;12.15;79.54
16094;BME280;8151;47.824;12.092;2023-10-31T13:03:12;95367.06;;;12.12;79.60
16094;BME280;8151;47.824;12.092;2023-10-31T13:05:43;95369.91;;;12.04;79.53
16094;BME280;8151;47.824;12.092;2023-10-31T13:08:14;95372.34;;;11.92;79.52
16094;BME280;8151;47.824;12.092;2023-10-31T13:10:43;95373.34;;;11.91;79.44
16094;BME280;8151;47.824;12.092;2023-10-31T13:13:12;95376.34;;;11.88;79.45